createdAt,value
2023-04-26T00:02:01.187Z,97800.38
2023-04-26T00:04:29.521Z,97808.63
2023-04-26T00:06:57.048Z,97795.44
2023-04-26T00:09:23.956Z,97792.06
2023-04-26T00:11:51.206Z,97791.06
2023-04-26T00:14:18.290Z,97797.63
2023-04-26T00:16:45.440Z,97785.47
2023-04-26T00:19:12.908Z,97786.09
2023-04-26T00:21:40.312Z,97791.03
2023-04-26T00:24:07.957Z,97788.31
2023-04-26T00:26:35.175Z,97788.09
2023-04-26T00:29:04.205Z,97783.47
2023-04-26T00:31:31.324Z,97786.78
2023-04-26T00:33:58.284Z,97781.69
2023-04-26T00:36:25.257Z,97778.47
2023-04-26T00:38:53.227Z,97785.44
2023-04-26T00:41:20.522Z,97780.44
2023-04-26T00:43:47.834Z,97770.81
2023-04-26T00:46:14.917Z,97777.75
2023-04-26T00:48:42.616Z,97755.38
2023-04-26T00:51:09.881Z,97766.03
2023-04-26T00:53:37.136Z,97757.00
2023-04-26T00:56:08.077Z,97760.13
2023-04-26T00:58:35.158Z,97757.81
2023-04-26T01:01:02.803Z,97741.97
2023-04-26T01:03:30.493Z,97751.03
2023-04-26T01:05:58.339Z,97749.22
2023-04-26T01:08:25.690Z,97741.72
2023-04-26T01:10:53.409Z,97743.88
2023-04-26T01:13:21.074Z,97735.25
2023-04-26T01:15:48.691Z,97739.06
2023-04-26T01:18:15.799Z,97736.06
2023-04-26T01:20:43.406Z,97717.88
2023-04-26T01:23:11.893Z,97730.88
2023-04-26T01:25:39.444Z,97725.13
2023-04-26T01:28:06.517Z,97732.47
2023-04-26T01:30:33.437Z,97716.50
2023-04-26T01:33:03.393Z,97722.19
2023-04-26T01:35:30.407Z,97713.78
2023-04-26T01:37:57.369Z,97707.03
2023-04-26T01:40:24.349Z,97704.56
2023-04-26T01:42:51.374Z,97702.34
2023-04-26T01:45:18.471Z,97703.63
2023-04-26T01:48:04.324Z,97701.91
2023-04-26T01:50:33.102Z,97693.47
2023-04-26T01:53:00.023Z,97700.19
2023-04-26T01:55:27.091Z,97688.84
2023-04-26T01:57:54.057Z,97688.06
2023-04-26T02:00:21.121Z,97688.84
2023-04-26T02:02:49.729Z,97684.53
2023-04-26T02:05:16.788Z,97681.03
2023-04-26T02:07:43.867Z,97677.72
2023-04-26T02:10:11.099Z,97678.50
2023-04-26T02:12:38.471Z,97673.88
2023-04-26T02:15:06.330Z,97670.69
2023-04-26T02:17:37.828Z,97669.56
2023-04-26T02:20:05.334Z,97678.50
2023-04-26T02:22:32.368Z,97668.16
2023-04-26T02:24:59.501Z,97663.53
2023-04-26T02:27:28.019Z,97654.59
2023-04-26T02:29:55.534Z,97666.25
2023-04-26T02:32:22.570Z,97658.41
2023-04-26T02:34:50.741Z,97654.41
2023-04-26T02:37:17.832Z,97649.28
2023-04-26T02:39:45.156Z,97665.06
2023-04-26T02:42:13.309Z,97653.53
2023-04-26T02:44:41.334Z,97650.63
2023-04-26T02:47:08.546Z,97652.63
2023-04-26T02:49:35.857Z,97646.72
2023-04-26T02:52:02.906Z,97645.72
2023-04-26T02:54:31.364Z,97642.53
2023-04-26T02:56:59.004Z,97647.44
2023-04-26T02:59:27.466Z,97639.81
2023-04-26T03:01:55.685Z,97632.78
2023-04-26T03:04:23.862Z,97631.69
2023-04-26T03:06:50.826Z,97632.78
2023-04-26T03:09:17.983Z,97635.50
2023-04-26T03:11:45.873Z,97634.09
2023-04-26T03:14:13.424Z,97633.47
2023-04-26T03:16:44.753Z,97622.63
2023-04-26T03:19:11.930Z,97623.44
2023-04-26T03:21:40.626Z,97625.84
2023-04-26T03:24:07.872Z,97623.63
2023-04-26T03:26:34.837Z,97619.31
2023-04-26T03:29:03.186Z,97622.22
2023-04-26T03:31:30.341Z,97616.00
2023-04-26T03:33:57.304Z,97626.84
2023-04-26T03:36:24.421Z,97625.03
2023-04-26T03:38:52.145Z,97622.44
2023-04-26T03:41:20.460Z,97611.41
2023-04-26T03:43:47.509Z,97611.72
2023-04-26T03:46:14.613Z,97607.41
2023-04-26T03:48:41.697Z,97600.22
2023-04-26T03:51:08.685Z,97605.13
2023-04-26T03:53:35.754Z,97603.84
2023-04-26T03:56:02.746Z,97597.88
2023-04-26T03:58:31.348Z,97605.53
2023-04-26T04:01:01.085Z,97595.00
2023-04-26T04:03:30.659Z,97599.81
2023-04-26T04:05:57.923Z,97598.69
2023-04-26T04:08:24.920Z,97594.06
2023-04-26T04:10:52.033Z,97593.50
2023-04-26T04:13:19.652Z,97598.91
2023-04-26T04:15:47.428Z,97588.88
2023-04-26T04:18:14.468Z,97591.59
2023-04-26T04:20:42.111Z,97584.75
2023-04-26T04:23:10.161Z,97593.19
2023-04-26T04:25:39.663Z,97588.38
2023-04-26T04:28:09.529Z,97596.28
2023-04-26T04:30:37.046Z,97593.50
2023-04-26T04:33:05.471Z,97593.97
2023-04-26T04:35:34.299Z,97586.16
2023-04-26T04:38:04.474Z,97589.06
2023-04-26T04:40:33.405Z,97589.88
2023-04-26T04:43:01.148Z,97585.53
2023-04-26T04:45:29.623Z,97591.47
2023-04-26T04:47:58.368Z,97581.91
2023-04-26T04:50:26.777Z,97590.22
2023-04-26T04:52:53.833Z,97587.72
2023-04-26T04:55:20.986Z,97592.03
2023-04-26T04:57:47.936Z,97590.91
2023-04-26T05:00:15.960Z,97588.03
2023-04-26T05:03:06.109Z,97580.56
2023-04-26T05:05:33.144Z,97577.84
2023-04-26T05:08:00.146Z,97582.97
2023-04-26T05:10:27.203Z,97581.56
2023-04-26T05:12:54.301Z,97591.50
2023-04-26T05:15:21.523Z,97590.97
2023-04-26T05:17:48.572Z,97581.75
2023-04-26T05:20:18.561Z,97582.03
2023-04-26T05:22:46.922Z,97582.25
2023-04-26T05:25:14.177Z,97576.22
2023-04-26T05:27:42.008Z,97564.38
2023-04-26T05:30:27.420Z,97585.47
2023-04-26T05:33:04.634Z,97580.03
2023-04-26T05:35:54.719Z,97581.47
2023-04-26T05:38:25.040Z,97573.81
2023-04-26T05:40:52.515Z,97576.03
2023-04-26T05:43:19.717Z,97580.03
2023-04-26T05:45:53.514Z,97581.34
2023-04-26T05:48:21.896Z,97587.44
2023-04-26T05:50:49.975Z,97586.13
2023-04-26T05:53:17.524Z,97582.00
2023-04-26T05:55:46.993Z,97585.50
2023-04-26T05:58:14.798Z,97585.22
2023-04-26T06:00:42.691Z,97594.94
2023-04-26T06:03:10.079Z,97576.94
2023-04-26T06:05:41.474Z,97588.47
2023-04-26T06:08:09.503Z,97601.94
2023-04-26T06:10:37.792Z,97595.25
2023-04-26T06:13:07.045Z,97584.59
2023-04-26T06:15:36.713Z,97582.50
2023-04-26T06:18:05.478Z,97589.69
2023-04-26T06:20:33.098Z,97599.13
2023-04-26T06:23:00.042Z,97591.00
2023-04-26T06:25:27.160Z,97598.19
2023-04-26T06:27:54.179Z,97613.06
2023-04-26T06:30:21.285Z,97601.41
2023-04-26T06:32:48.643Z,97597.56
2023-04-26T06:35:17.297Z,97605.41
2023-04-26T06:37:44.319Z,97600.94
2023-04-26T06:40:16.005Z,97594.72
2023-04-26T06:42:43.726Z,97603.56
2023-04-26T06:45:25.525Z,97609.97
2023-04-26T06:47:53.395Z,97603.91
2023-04-26T06:50:27.651Z,97614.94
2023-04-26T06:52:54.631Z,97610.63
2023-04-26T06:55:24.859Z,97610.94
2023-04-26T06:57:55.565Z,97619.88
2023-04-26T07:00:22.889Z,97609.66
2023-04-26T07:02:49.853Z,97616.38
2023-04-26T07:05:17.575Z,97619.56
2023-04-26T07:07:52.223Z,97617.66
2023-04-26T07:10:30.157Z,97614.47
2023-04-26T07:12:57.664Z,97615.13
2023-04-26T07:15:24.891Z,97615.44
2023-04-26T07:17:51.959Z,97618.47
2023-04-26T07:20:21.212Z,97614.81
2023-04-26T07:22:49.595Z,97611.16
2023-04-26T07:25:20.709Z,97617.88
2023-04-26T07:27:47.750Z,97635.16
2023-04-26T07:30:14.842Z,97633.88
2023-04-26T07:32:42.045Z,97625.59
2023-04-26T07:35:16.128Z,97647.19
2023-04-26T07:37:44.316Z,97634.56
2023-04-26T07:40:13.540Z,97633.94
2023-04-26T07:42:40.631Z,97628.19
2023-04-26T07:45:08.751Z,97640.25
2023-04-26T07:47:35.983Z,97640.13
2023-04-26T07:50:02.936Z,97640.28
2023-04-26T07:52:30.482Z,97638.56
2023-04-26T07:54:59.029Z,97644.47
2023-04-26T07:57:26.283Z,97645.59
2023-04-26T07:59:57.011Z,97647.34
2023-04-26T08:02:41.000Z,97644.94
2023-04-26T08:05:11.632Z,97652.47
2023-04-26T08:07:38.953Z,97651.84
2023-04-26T08:10:06.768Z,97655.22
2023-04-26T08:12:34.645Z,97654.91
2023-04-26T08:15:05.817Z,97654.28
2023-04-26T08:17:33.620Z,97654.78
2023-04-26T08:20:00.803Z,97658.63
2023-04-26T08:22:28.089Z,97664.41
2023-04-26T08:24:56.219Z,97685.66
2023-04-26T08:27:25.928Z,97672.06
2023-04-26T08:29:52.860Z,97677.66
2023-04-26T08:32:21.730Z,97667.44
2023-04-26T08:34:49.245Z,97666.22
2023-04-26T08:37:16.329Z,97663.97
2023-04-26T08:39:43.260Z,97669.25
2023-04-26T08:42:15.321Z,97682.22
2023-04-26T08:44:46.947Z,97672.94
2023-04-26T08:47:18.118Z,97683.13
2023-04-26T08:49:59.465Z,97688.72
2023-04-26T08:52:30.902Z,97679.09
2023-04-26T08:54:59.632Z,97677.34
2023-04-26T08:57:27.533Z,97677.19
2023-04-26T08:59:57.931Z,97677.34
2023-04-26T09:02:25.338Z,97681.53
2023-04-26T09:04:52.829Z,97691.28
2023-04-26T09:07:36.128Z,97684.88
2023-04-26T09:10:09.364Z,97695.72
2023-04-26T09:12:36.651Z,97695.22
2023-04-26T09:15:08.018Z,97700.75
2023-04-26T09:17:41.852Z,97703.09
2023-04-26T09:20:31.952Z,97695.59
2023-04-26T09:23:10.161Z,97722.53
2023-04-26T09:25:37.896Z,97714.78
2023-04-26T09:28:21.611Z,97701.66
2023-04-26T09:30:49.028Z,97726.72
2023-04-26T09:33:16.455Z,97711.22
2023-04-26T09:35:44.258Z,97714.25
2023-04-26T09:38:16.313Z,97731.84
2023-04-26T09:40:47.864Z,97718.75
2023-04-26T09:43:19.946Z,97717.03
2023-04-26T09:45:53.008Z,97723.75
2023-04-26T09:48:26.256Z,97722.84
2023-04-26T09:50:58.454Z,97723.06
2023-04-26T09:53:34.765Z,97717.59
2023-04-26T09:56:15.885Z,97719.25
2023-04-26T09:59:00.960Z,97745.50
2023-04-26T10:01:30.223Z,97725.53
2023-04-26T10:03:58.626Z,97735.50
2023-04-26T10:06:27.391Z,97720.00
2023-04-26T10:08:55.872Z,97731.03
2023-04-26T10:11:24.839Z,97729.59
2023-04-26T10:13:52.219Z,97744.16
2023-04-26T10:16:21.098Z,97731.56
2023-04-26T10:18:49.458Z,97748.88
2023-04-26T10:21:37.234Z,97742.22
2023-04-26T10:24:04.928Z,97741.94
2023-04-26T10:26:52.926Z,97734.47
2023-04-26T10:29:22.360Z,97730.97
2023-04-26T10:32:08.883Z,97743.78
2023-04-26T10:34:37.559Z,97735.44
2023-04-26T10:37:18.391Z,97744.53
2023-04-26T10:39:47.173Z,97739.06
2023-04-26T10:42:27.828Z,97740.69
2023-04-26T10:45:28.350Z,97741.81
2023-04-26T10:48:20.169Z,97744.53
2023-04-26T10:51:12.857Z,97738.94
2023-04-26T10:53:45.718Z,97753.56
2023-04-26T10:56:33.677Z,97753.22
2023-04-26T10:59:33.093Z,97751.50
2023-04-26T11:02:01.702Z,97757.56
2023-04-26T11:04:52.313Z,97755.59
2023-04-26T11:07:41.204Z,97789.41
2023-04-26T11:10:12.622Z,97776.25
2023-04-26T11:12:42.492Z,97778.16
2023-04-26T11:15:12.487Z,97776.25
2023-04-26T11:17:40.835Z,97778.03
2023-04-26T11:20:16.468Z,97788.44
2023-04-26T11:22:43.498Z,97779.81
2023-04-26T11:25:13.930Z,97787.38
2023-04-26T11:27:43.707Z,97778.06
2023-04-26T11:30:11.898Z,97775.91
2023-04-26T11:32:38.935Z,97777.16
2023-04-26T11:35:06.265Z,97776.19
2023-04-26T11:37:34.927Z,97789.50
2023-04-26T11:40:01.966Z,97784.84
2023-04-26T11:42:31.267Z,97782.88
2023-04-26T11:44:59.766Z,97783.00
2023-04-26T11:47:30.893Z,97791.47
2023-04-26T11:49:58.475Z,97791.53
2023-04-26T11:52:26.668Z,97805.50
2023-04-26T11:55:06.283Z,97794.66
2023-04-26T11:57:34.642Z,97799.00
2023-04-26T12:00:15.102Z,97796.38
2023-04-26T12:02:46.805Z,97803.78
2023-04-26T12:05:28.493Z,97808.47
2023-04-26T12:07:57.411Z,97816.25
2023-04-26T12:10:42.880Z,97803.16
2023-04-26T12:13:13.991Z,97807.94
2023-04-26T12:15:41.078Z,97816.41
2023-04-26T12:18:12.533Z,97833.63
2023-04-26T12:20:42.816Z,97810.22
2023-04-26T12:23:14.644Z,97822.75
2023-04-26T12:25:52.631Z,97835.38
2023-04-26T12:28:19.803Z,97823.41
2023-04-26T12:30:51.203Z,97828.22
2023-04-26T12:33:23.123Z,97812.63
2023-04-26T12:35:53.387Z,97824.69
2023-04-26T12:38:20.735Z,97829.03
2023-04-26T12:40:47.931Z,97826.25
2023-04-26T12:43:16.890Z,97828.34
2023-04-26T12:45:44.007Z,97822.06
2023-04-26T12:48:13.728Z,97815.56
2023-04-26T12:50:41.549Z,97828.78
2023-04-26T12:53:08.637Z,97820.88
2023-04-26T12:55:35.794Z,97825.44
2023-04-26T12:58:03.314Z,97816.03
2023-04-26T13:00:30.894Z,97830.22
2023-04-26T13:02:58.193Z,97823.50
2023-04-26T13:05:25.630Z,97831.38
2023-04-26T13:07:52.766Z,97843.69
2023-04-26T13:10:20.217Z,97840.22
2023-04-26T13:12:47.380Z,97856.94
2023-04-26T13:15:16.204Z,97828.09
2023-04-26T13:17:45.778Z,97835.38
2023-04-26T13:20:13.308Z,97843.53
2023-04-26T13:22:42.536Z,97829.34
2023-04-26T13:25:13.415Z,97834.91
2023-04-26T13:27:40.486Z,97830.03
2023-04-26T13:30:08.680Z,97827.06
2023-04-26T13:32:36.440Z,97829.84
2023-04-26T13:35:04.381Z,97835.09
2023-04-26T13:37:31.908Z,97837.25
2023-04-26T13:39:59.077Z,97837.66
2023-04-26T13:42:26.470Z,97843.22
2023-04-26T13:44:53.350Z,97844.88
2023-04-26T13:47:20.925Z,97848.94
2023-04-26T13:49:48.016Z,97847.94
2023-04-26T13:52:15.016Z,97843.94
2023-04-26T13:54:41.948Z,97845.09
2023-04-26T13:57:09.042Z,97842.03
2023-04-26T13:59:36.153Z,97844.03
2023-04-26T14:02:03.896Z,97845.22
2023-04-26T14:04:31.400Z,97846.78
2023-04-26T14:06:58.864Z,97857.06
2023-04-26T14:09:26.066Z,97849.88
2023-04-26T14:12:00.863Z,97852.66
2023-04-26T14:14:34.758Z,97849.88
2023-04-26T14:17:01.880Z,97879.31
2023-04-26T14:19:28.805Z,97857.91
2023-04-26T14:21:55.764Z,97872.59
2023-04-26T14:24:22.900Z,97869.00
2023-04-26T14:26:49.919Z,97863.47
2023-04-26T14:29:16.866Z,97860.25
2023-04-26T14:31:44.217Z,97874.47
2023-04-26T14:34:11.232Z,97869.94
2023-04-26T14:36:38.196Z,97877.22
2023-04-26T14:39:05.750Z,97875.63
2023-04-26T14:41:32.922Z,97886.72
2023-04-26T14:43:59.923Z,97878.03
2023-04-26T14:46:27.037Z,97878.09
2023-04-26T14:48:54.174Z,97881.78
2023-04-26T14:51:21.115Z,97882.19
2023-04-26T14:53:48.037Z,97885.28
2023-04-26T14:56:15.269Z,97884.66
2023-04-26T14:58:42.244Z,97880.84
2023-04-26T15:01:09.479Z,97880.50
2023-04-26T15:03:36.654Z,97886.16
2023-04-26T15:06:03.993Z,97878.53
2023-04-26T15:08:30.983Z,97877.66
2023-04-26T15:10:58.020Z,97882.38
2023-04-26T15:13:24.960Z,97896.75
2023-04-26T15:15:52.133Z,97905.16
2023-04-26T15:18:19.196Z,97904.25
2023-04-26T15:20:46.299Z,97907.97
2023-04-26T15:23:13.501Z,97903.34
2023-04-26T15:25:43.489Z,97901.06
2023-04-26T15:28:10.418Z,97906.19
2023-04-26T15:30:37.441Z,97910.28
2023-04-26T15:33:04.523Z,97905.59
2023-04-26T15:35:31.744Z,97909.31
2023-04-26T15:37:58.705Z,97911.56
2023-04-26T15:40:25.919Z,97916.19
2023-04-26T15:42:52.931Z,97922.63
2023-04-26T15:45:20.364Z,97919.69
2023-04-26T15:47:47.526Z,97920.00
2023-04-26T15:50:14.812Z,97929.84
2023-04-26T15:52:44.724Z,97924.47
2023-04-26T15:55:12.027Z,97932.56
2023-04-26T15:57:42.007Z,97929.16
2023-04-26T16:00:09.923Z,97931.44
2023-04-26T16:02:37.576Z,97941.06
2023-04-26T16:05:05.358Z,97937.34
2023-04-26T16:07:32.918Z,97937.56
2023-04-26T16:09:59.931Z,97944.97
2023-04-26T16:12:26.951Z,97947.25
2023-04-26T16:14:57.893Z,97953.00
2023-04-26T16:17:25.017Z,97956.88
2023-04-26T16:19:54.706Z,97966.47
2023-04-26T16:22:23.816Z,97966.81
2023-04-26T16:24:50.836Z,97976.41
2023-04-26T16:27:22.411Z,97974.72
2023-04-26T16:29:52.027Z,97979.00
2023-04-26T16:32:19.196Z,97976.28
2023-04-26T16:34:46.317Z,97975.34
2023-04-26T16:37:14.796Z,97979.22
2023-04-26T16:39:41.977Z,97978.44
2023-04-26T16:42:08.977Z,97978.16
2023-04-26T16:44:36.181Z,97989.69
2023-04-26T16:47:04.096Z,97980.19
2023-04-26T16:49:31.126Z,97990.31
2023-04-26T16:51:59.086Z,97983.25
2023-04-26T16:54:26.671Z,97982.63
2023-04-26T16:56:57.018Z,97992.19
2023-04-26T16:59:24.060Z,97992.94
2023-04-26T17:01:52.185Z,98000.69
2023-04-26T17:04:19.498Z,97997.56
2023-04-26T17:06:46.719Z,98002.94
2023-04-26T17:09:16.717Z,98006.63
2023-04-26T17:11:44.965Z,98015.88
2023-04-26T17:14:14.207Z,98014.59
2023-04-26T17:16:41.238Z,98012.56
2023-04-26T17:19:08.390Z,98003.41
2023-04-26T17:21:35.324Z,98023.50
2023-04-26T17:24:02.342Z,98022.72
2023-04-26T17:26:32.712Z,98030.94
2023-04-26T17:28:59.800Z,98032.19
2023-04-26T17:31:26.803Z,98031.09
2023-04-26T17:33:57.241Z,98033.19
2023-04-26T17:36:24.390Z,98044.75
2023-04-26T17:38:51.758Z,98038.63
2023-04-26T17:41:18.880Z,98037.66
2023-04-26T17:43:46.201Z,98054.31
2023-04-26T17:46:13.560Z,98054.31
2023-04-26T17:48:43.009Z,98044.69
2023-04-26T17:51:13.042Z,98043.25
2023-04-26T17:53:45.571Z,98064.41
2023-04-26T17:56:12.695Z,98069.66
2023-04-26T17:58:40.884Z,98067.91
2023-04-26T18:01:07.860Z,98072.38
2023-04-26T18:03:35.997Z,98082.31
2023-04-26T18:06:03.690Z,98073.97
2023-04-26T18:08:30.885Z,98082.78
2023-04-26T18:10:58.436Z,98090.78
2023-04-26T18:13:25.560Z,98088.69
2023-04-26T18:15:54.995Z,98084.31
2023-04-26T18:18:27.266Z,98088.66
2023-04-26T18:20:54.920Z,98092.31
2023-04-26T18:23:22.135Z,98098.09
2023-04-26T18:25:50.613Z,98083.16
2023-04-26T18:28:17.688Z,98094.38
2023-04-26T18:30:44.859Z,98096.13
2023-04-26T18:33:12.081Z,98105.25
2023-04-26T18:35:39.450Z,98100.13
2023-04-26T18:38:06.522Z,98111.59
2023-04-26T18:40:33.724Z,98101.00
2023-04-26T18:43:01.594Z,98112.88
2023-04-26T18:45:28.891Z,98093.75
2023-04-26T18:47:56.460Z,98102.25
2023-04-26T18:50:23.655Z,98098.72
2023-04-26T18:52:50.677Z,98108.44
2023-04-26T18:55:20.778Z,98103.91
2023-04-26T18:57:47.943Z,98104.69
2023-04-26T19:00:16.261Z,98106.69
2023-04-26T19:02:43.427Z,98123.03
2023-04-26T19:05:11.435Z,98116.09
2023-04-26T19:07:39.358Z,98123.78
2023-04-26T19:10:07.609Z,98133.69
2023-04-26T19:12:34.709Z,98120.34
2023-04-26T19:15:02.054Z,98129.13
2023-04-26T19:17:33.466Z,98131.34
2023-04-26T19:20:00.544Z,98136.00
2023-04-26T19:22:27.750Z,98131.78
2023-04-26T19:24:54.893Z,98134.31
2023-04-26T19:27:21.797Z,98133.34
2023-04-26T19:29:48.736Z,98136.19
2023-04-26T19:32:15.823Z,98134.88
2023-04-26T19:34:43.532Z,98136.88
2023-04-26T19:37:10.523Z,98135.41
2023-04-26T19:39:37.831Z,98141.13
2023-04-26T19:42:04.905Z,98141.88
2023-04-26T19:44:32.100Z,98143.28
2023-04-26T19:46:59.207Z,98153.16
2023-04-26T19:49:28.932Z,98135.13
2023-04-26T19:51:56.203Z,98143.50
2023-04-26T19:54:23.302Z,98151.16
2023-04-26T19:56:50.450Z,98154.47
2023-04-26T19:59:17.394Z,98162.94
2023-04-26T20:01:44.360Z,98155.69
2023-04-26T20:04:11.546Z,98164.75
2023-04-26T20:06:38.581Z,98165.38
2023-04-26T20:09:07.149Z,98171.41
2023-04-26T20:11:34.410Z,98182.84
2023-04-26T20:14:01.459Z,98186.69
2023-04-26T20:16:28.786Z,98185.38
2023-04-26T20:18:55.806Z,98189.50
2023-04-26T20:21:23.014Z,98186.59
2023-04-26T20:23:49.939Z,98192.63
2023-04-26T20:26:16.972Z,98185.06
2023-04-26T20:28:43.968Z,98182.97
2023-04-26T20:31:11.040Z,98191.72
2023-04-26T20:33:38.137Z,98181.97
2023-04-26T20:36:05.487Z,98190.91
2023-04-26T20:38:32.932Z,98196.03
2023-04-26T20:41:00.494Z,98200.66
2023-04-26T20:43:27.717Z,98204.50
2023-04-26T20:45:54.901Z,98205.59
2023-04-26T20:48:22.327Z,98208.91
2023-04-26T20:50:49.425Z,98197.00
2023-04-26T20:53:16.777Z,98207.56
2023-04-26T20:55:43.814Z,98212.81
2023-04-26T20:58:10.811Z,98208.78
2023-04-26T21:00:37.830Z,98219.91
2023-04-26T21:03:05.014Z,98218.91
2023-04-26T21:05:32.207Z,98220.31
2023-04-26T21:07:59.209Z,98213.66
2023-04-26T21:10:26.326Z,98217.19
2023-04-26T21:12:53.663Z,98220.28
2023-04-26T21:15:21.248Z,98215.94
2023-04-26T21:17:48.453Z,98218.72
2023-04-26T21:20:15.571Z,98221.75
2023-04-26T21:22:42.475Z,98227.69
2023-04-26T21:25:10.679Z,98231.00
2023-04-26T21:27:37.901Z,98239.72
2023-04-26T21:30:07.945Z,98230.06
2023-04-26T21:32:40.467Z,98229.84
2023-04-26T21:35:08.866Z,98227.50
2023-04-26T21:37:36.958Z,98241.31
2023-04-26T21:40:05.479Z,98239.97
2023-04-26T21:42:33.296Z,98221.03
2023-04-26T21:45:01.274Z,98221.84
2023-04-26T21:47:30.428Z,98219.22
2023-04-26T21:49:58.213Z,98243.78
2023-04-26T21:52:25.507Z,98242.75
2023-04-26T21:54:52.944Z,98235.56
2023-04-26T21:57:24.214Z,98247.75
2023-04-26T21:59:51.504Z,98243.50
2023-04-26T22:02:19.096Z,98240.50
2023-04-26T22:04:46.330Z,98241.59
2023-04-26T22:07:13.359Z,98233.25
2023-04-26T22:09:40.560Z,98258.97
2023-04-26T22:12:07.545Z,98226.00
2023-04-26T22:14:35.208Z,98233.81
2023-04-26T22:17:02.541Z,98240.94
2023-04-26T22:19:29.534Z,98246.13
2023-04-26T22:21:56.594Z,98255.34
2023-04-26T22:24:23.623Z,98245.38
2023-04-26T22:26:50.767Z,98248.09
2023-04-26T22:29:17.941Z,98246.78
2023-04-26T22:31:47.995Z,98242.47
2023-04-26T22:34:15.062Z,98253.53
2023-04-26T22:36:42.116Z,98260.06
2023-04-26T22:39:09.349Z,98258.44
2023-04-26T22:41:36.800Z,98259.53
2023-04-26T22:44:04.221Z,98253.59
2023-04-26T22:46:31.578Z,98262.25
2023-04-26T22:49:01.705Z,98282.91
2023-04-26T22:51:28.848Z,98278.06
2023-04-26T22:53:56.025Z,98270.81
2023-04-26T22:56:22.956Z,98278.16
2023-04-26T22:58:50.099Z,98271.69
2023-04-26T23:01:17.250Z,98274.16
2023-04-26T23:03:44.469Z,98271.22
2023-04-26T23:06:11.587Z,98277.75
2023-04-26T23:08:38.501Z,98273.41
2023-04-26T23:11:09.167Z,98279.66
2023-04-26T23:13:36.441Z,98280.22
2023-04-26T23:16:04.665Z,98274.22
2023-04-26T23:18:31.931Z,98279.03
2023-04-26T23:20:58.898Z,98275.25
2023-04-26T23:23:26.802Z,98279.84
2023-04-26T23:25:54.208Z,98280.69
2023-04-26T23:28:21.202Z,98285.28
2023-04-26T23:30:48.902Z,98278.63
2023-04-26T23:33:16.767Z,98277.81
2023-04-26T23:35:43.842Z,98267.25
2023-04-26T23:38:10.851Z,98280.97
2023-04-26T23:40:37.885Z,98291.06
2023-04-26T23:43:06.317Z,98287.31
2023-04-26T23:45:33.504Z,98295.22
2023-04-26T23:48:00.964Z,98303.66
2023-04-26T23:50:28.208Z,98304.53
2023-04-26T23:52:55.637Z,98303.72
2023-04-26T23:55:24.000Z,98311.03
2023-04-26T23:57:51.123Z,98297.56
